Time;durP1;ratioP1;P1;durP2;ratioP2;P2;SDS_P1;SDS_P2;PMS_P1;PMS_P2;Temp;Humidity;BMP_temperature;BMP_pressure;BME280_temperature;BME280_humidity;BME280_pressure;Samples;Min_cycle;Max_cycle;Signal;HPM_P1;HPM_P2
2021/08/28 00:02:12;;;;;;;1.93;1.80;;;21.60;33.10;;;;;;5052328;28;20184;-66
2021/08/28 00:04:38;;;;;;;5.00;1.90;;;21.60;33.00;;;;;;5052279;28;20180;-66
2021/08/28 00:07:04;;;;;;;2.33;2.13;;;21.60;32.90;;;;;;5052264;28;20505;-66
2021/08/28 00:09:29;;;;;;;2.10;1.90;;;21.60;32.90;;;;;;5051956;28;20199;-65
2021/08/28 00:11:55;;;;;;;1.70;1.60;;;21.60;33.00;;;;;;5052065;28;20207;-67
2021/08/28 00:14:20;;;;;;;2.17;1.83;;;21.60;33.00;;;;;;5052522;28;20679;-66
2021/08/28 00:16:46;;;;;;;1.90;1.80;;;21.50;32.90;;;;;;5052201;28;20546;-65
2021/08/28 00:19:11;;;;;;;10.30;1.97;;;21.50;32.90;;;;;;5051753;28;20200;-66
2021/08/28 00:21:37;;;;;;;2.10;2.00;;;21.60;33.00;;;;;;5052083;28;20233;-66
2021/08/28 00:24:03;;;;;;;2.50;2.30;;;21.60;33.00;;;;;;5052029;28;20176;-66
2021/08/28 00:26:29;;;;;;;1.60;1.50;;;21.50;33.00;;;;;;5051879;28;20245;-66
2021/08/28 00:28:55;;;;;;;3.63;2.47;;;21.50;32.90;;;;;;5051624;28;20290;-66
2021/08/28 00:31:20;;;;;;;2.03;1.93;;;21.50;33.00;;;;;;5051813;28;20442;-66
2021/08/28 00:33:46;;;;;;;1.93;1.83;;;21.50;32.90;;;;;;5051902;28;20425;-66
2021/08/28 00:36:11;;;;;;;2.00;1.90;;;21.50;33.00;;;;;;5051922;28;20195;-66
2021/08/28 00:38:37;;;;;;;1.97;1.80;;;21.50;33.00;;;;;;5051585;28;20207;-66
2021/08/28 00:41:03;;;;;;;1.83;1.73;;;21.50;33.00;;;;;;5051703;28;20642;-65
2021/08/28 00:43:29;;;;;;;2.40;2.00;;;21.50;33.00;;;;;;5051753;28;20236;-66
2021/08/28 00:45:55;;;;;;;1.93;1.80;;;21.50;33.00;;;;;;5051694;28;20190;-66
2021/08/28 00:48:20;;;;;;;1.60;1.50;;;21.50;33.00;;;;;;5051270;28;20465;-66
2021/08/28 00:50:46;;;;;;;1.80;1.70;;;21.50;33.10;;;;;;5051748;28;20180;-66
2021/08/28 00:53:14;;;;;;;2.40;1.97;;;21.50;33.10;;;;;;5051757;28;20265;-66
2021/08/28 00:55:48;;;;;;;2.00;1.90;;;21.50;33.10;;;;;;5051624;28;20176;-67
2021/08/28 00:58:14;;;;;;;1.93;1.83;;;21.50;33.10;;;;;;5050195;28;20863;-65
2021/08/28 01:00:45;;;;;;;2.30;2.10;;;21.50;33.10;;;;;;5051728;28;20434;-65
2021/08/28 01:03:12;;;;;;;1.87;1.77;;;21.50;33.10;;;;;;5051673;28;20184;-66
2021/08/28 01:05:59;;;;;;;1.60;1.50;;;21.50;33.10;;;;;;5051621;28;20417;-66
2021/08/28 01:08:40;;;;;;;2.10;2.00;;;21.50;33.10;;;;;;5050129;28;20820;-66
2021/08/28 01:11:47;;;;;;;1.90;1.80;;;21.50;33.10;;;;;;5055541;28;20463;-66
2021/08/28 01:14:20;;;;;;;1.90;1.80;;;21.50;33.10;;;;;;5055527;28;20406;-66
2021/08/28 01:16:50;;;;;;;1.80;1.70;;;21.50;33.10;;;;;;5055420;28;20402;-65
2021/08/28 01:19:26;;;;;;;2.10;2.00;;;21.50;33.10;;;;;;5055199;28;20433;-65
2021/08/28 01:21:52;;;;;;;2.53;1.67;;;21.50;33.20;;;;;;5055387;28;20410;-65
2021/08/28 01:24:19;;;;;;;2.33;1.80;;;21.50;33.10;;;;;;5055367;28;20406;-65
2021/08/28 01:27:10;;;;;;;1.97;1.87;;;21.50;33.20;;;;;;5055211;28;20500;-66
2021/08/28 01:32:58;;;;;;;1.93;1.80;;;21.40;33.10;;;;;;5055430;28;20436;-65
2021/08/28 01:35:24;;;;;;;2.00;1.90;;;21.40;33.10;;;;;;5055328;28;20411;-66
2021/08/28 01:37:50;;;;;;;1.70;1.60;;;21.40;33.20;;;;;;5055166;28;20260;-67
2021/08/28 01:40:17;;;;;;;2.00;1.90;;;21.40;33.20;;;;;;5055095;28;20438;-66
2021/08/28 01:42:45;;;;;;;1.77;1.57;;;21.50;33.30;;;;;;5055042;28;20412;-65
2021/08/28 01:45:15;;;;;;;2.00;1.70;;;21.40;33.20;;;;;;5054934;28;20448;-65
2021/08/28 01:47:42;;;;;;;1.80;1.70;;;21.40;33.20;;;;;;5054678;28;20469;-65
2021/08/28 01:50:09;;;;;;;1.67;1.57;;;21.40;33.30;;;;;;5054941;28;20465;-66
2021/08/28 01:52:34;;;;;;;1.90;1.80;;;21.40;33.30;;;;;;5054647;28;20420;-66
2021/08/28 01:55:00;;;;;;;2.07;1.93;;;21.40;33.20;;;;;;5054828;28;20497;-65
2021/08/28 01:57:27;;;;;;;1.80;1.70;;;21.40;33.30;;;;;;5054668;28;20188;-66
2021/08/28 01:59:52;;;;;;;1.97;1.80;;;21.40;33.30;;;;;;5054482;28;20192;-65
2021/08/28 02:02:18;;;;;;;2.87;1.70;;;21.40;33.30;;;;;;5054541;28;20786;-66
2021/08/28 02:04:44;;;;;;;2.30;1.70;;;21.40;33.30;;;;;;5054639;28;20421;-66
2021/08/28 02:07:43;;;;;;;2.07;1.97;;;21.40;33.30;;;;;;5054390;28;20262;-66
2021/08/28 02:10:27;;;;;;;1.90;1.80;;;21.40;33.30;;;;;;5054299;28;20196;-66
2021/08/28 02:13:01;;;;;;;1.93;1.83;;;21.40;33.30;;;;;;5054306;28;20975;-66
2021/08/28 02:15:44;;;;;;;1.97;1.77;;;21.40;33.30;;;;;;5054393;28;20467;-66
2021/08/28 02:18:16;;;;;;;1.83;1.73;;;21.40;33.30;;;;;;5052817;28;20892;-65
2021/08/28 02:20:47;;;;;;;2.20;2.00;;;21.40;33.40;;;;;;5053912;28;20429;-66
2021/08/28 02:23:18;;;;;;;2.17;1.53;;;21.40;34.20;;;;;;5054204;28;20825;-66
2021/08/28 02:26:04;;;;;;;1.73;1.63;;;21.40;33.50;;;;;;5054350;28;20413;-66
2021/08/28 02:28:56;;;;;;;1.90;1.80;;;21.40;33.50;;;;;;5053790;28;20837;-66
2021/08/28 02:31:28;;;;;;;1.83;1.53;;;21.40;33.50;;;;;;5053724;28;20556;-65
2021/08/28 02:33:54;;;;;;;1.80;1.70;;;21.40;33.50;;;;;;5054226;28;20442;-66
2021/08/28 02:36:21;;;;;;;2.00;1.90;;;21.40;33.50;;;;;;5053970;28;20468;-65
2021/08/28 02:38:48;;;;;;;1.90;1.80;;;21.40;33.60;;;;;;5053766;28;20437;-65
2021/08/28 02:41:14;;;;;;;2.00;1.90;;;21.40;33.60;;;;;;5054110;28;20458;-65
2021/08/28 02:43:41;;;;;;;2.00;1.80;;;21.40;33.60;;;;;;5053794;28;20410;-66
2021/08/28 02:46:08;;;;;;;2.27;2.17;;;21.40;33.60;;;;;;5053810;28;20472;-66
2021/08/28 02:48:37;;;;;;;2.60;2.00;;;21.40;33.60;;;;;;5053287;28;20462;-66
2021/08/28 02:51:05;;;;;;;2.07;1.97;;;21.40;33.70;;;;;;5052647;28;20429;-66
2021/08/28 02:53:31;;;;;;;4.33;2.60;;;21.40;33.70;;;;;;5053762;28;20425;-65
2021/08/28 02:55:58;;;;;;;2.30;1.70;;;21.40;33.80;;;;;;5053740;28;20410;-66
2021/08/28 02:58:24;;;;;;;2.07;1.97;;;21.40;33.70;;;;;;5053233;28;20509;-66
2021/08/28 03:00:50;;;;;;;2.00;1.90;;;21.40;33.80;;;;;;5053588;28;20505;-65
2021/08/28 03:03:16;;;;;;;2.33;2.13;;;21.40;33.80;;;;;;5053408;28;20235;-65
2021/08/28 03:05:46;;;;;;;1.87;1.77;;;21.40;33.70;;;;;;5053515;28;20441;-65
2021/08/28 03:08:14;;;;;;;3.40;1.90;;;21.40;33.70;;;;;;5052951;28;20462;-66
2021/08/28 03:10:43;;;;;;;2.53;2.33;;;21.40;33.80;;;;;;5053329;28;20429;-66
2021/08/28 03:13:09;;;;;;;4.53;2.37;;;21.40;33.90;;;;;;5053097;28;20885;-65
2021/08/28 03:15:36;;;;;;;1.83;1.73;;;21.40;33.90;;;;;;5053342;28;20414;-66
2021/08/28 03:18:02;;;;;;;2.83;2.30;;;21.40;33.90;;;;;;5052950;28;20203;-65
2021/08/28 03:20:28;;;;;;;2.60;2.33;;;21.40;33.90;;;;;;5053221;28;20426;-66
2021/08/28 03:22:54;;;;;;;2.77;2.50;;;21.40;33.90;;;;;;5053048;28;20884;-65
2021/08/28 03:25:20;;;;;;;2.37;2.27;;;21.40;33.90;;;;;;5053071;28;20497;-65
2021/08/28 03:27:49;;;;;;;2.50;2.30;;;21.40;34.00;;;;;;5052757;28;20482;-65
2021/08/28 03:30:16;;;;;;;2.60;2.40;;;21.40;34.00;;;;;;5052970;28;20434;-67
2021/08/28 03:32:43;;;;;;;2.80;2.60;;;21.40;34.00;;;;;;5052129;28;20419;-66
2021/08/28 03:35:10;;;;;;;3.40;2.80;;;21.40;34.00;;;;;;5053049;28;20453;-65
2021/08/28 03:37:40;;;;;;;2.33;2.13;;;21.40;34.10;;;;;;5052775;28;20450;-66
2021/08/28 03:40:08;;;;;;;2.70;2.53;;;21.40;34.00;;;;;;5052612;28;20500;-66
2021/08/28 03:42:36;;;;;;;2.67;2.47;;;21.40;34.10;;;;;;5052581;28;20484;-66
2021/08/28 03:45:04;;;;;;;2.73;2.50;;;21.40;34.10;;;;;;5052781;28;20426;-66
2021/08/28 03:47:31;;;;;;;2.40;2.20;;;21.40;34.10;;;;;;5052365;28;20475;-65
2021/08/28 03:49:57;;;;;;;3.47;2.63;;;21.40;34.10;;;;;;5051863;28;20426;-67
2021/08/28 03:52:23;;;;;;;2.80;2.60;;;21.40;34.10;;;;;;5050675;28;20492;-65
2021/08/28 03:54:48;;;;;;;2.70;2.50;;;21.40;34.10;;;;;;5052391;28;20432;-66
2021/08/28 03:57:14;;;;;;;2.93;2.73;;;21.40;34.10;;;;;;5052544;28;20527;-66
2021/08/28 03:59:39;;;;;;;2.60;2.40;;;21.30;34.00;;;;;;5052116;28;20329;-67
2021/08/28 04:02:05;;;;;;;3.00;2.80;;;21.30;34.10;;;;;;5052440;28;20188;-66
2021/08/28 04:04:30;;;;;;;3.27;2.80;;;21.30;34.10;;;;;;5052297;28;20180;-66
2021/08/28 04:06:56;;;;;;;2.83;2.63;;;21.30;34.20;;;;;;5052313;28;20187;-66
2021/08/28 04:09:21;;;;;;;3.40;3.10;;;21.40;34.20;;;;;;5051853;28;20210;-66
2021/08/28 04:11:47;;;;;;;3.63;3.40;;;21.40;34.30;;;;;;5052303;28;20168;-66
2021/08/28 04:14:12;;;;;;;3.30;3.10;;;21.30;34.20;;;;;;5052157;28;20179;-66
2021/08/28 04:16:38;;;;;;;4.00;3.67;;;21.30;34.20;;;;;;5052430;28;20176;-66
2021/08/28 04:19:04;;;;;;;3.97;3.53;;;21.30;34.30;;;;;;5051829;28;20192;-66
2021/08/28 04:21:29;;;;;;;3.50;3.30;;;21.30;34.30;;;;;;5052089;28;20222;-65
2021/08/28 04:23:55;;;;;;;3.10;2.90;;;21.30;34.40;;;;;;5051947;28;20176;-66
2021/08/28 04:26:20;;;;;;;3.57;3.37;;;21.30;34.40;;;;;;5052060;28;20180;-66
2021/08/28 04:28:46;;;;;;;4.10;3.40;;;21.30;34.50;;;;;;5051636;28;20204;-66
2021/08/28 04:31:11;;;;;;;3.33;3.07;;;21.30;34.50;;;;;;5042963;28;20196;-66
2021/08/28 04:33:37;;;;;;;6.67;4.17;;;21.30;34.50;;;;;;5045038;28;20215;-66
2021/08/28 04:36:02;;;;;;;5.00;4.50;;;21.30;34.70;;;;;;5040065;28;20175;-66
2021/08/28 04:38:28;;;;;;;7.63;5.10;;;21.40;34.80;;;;;;5037185;28;20220;-65
2021/08/28 04:40:53;;;;;;;7.67;6.33;;;21.30;34.80;;;;;;5043774;28;20181;-66
2021/08/28 04:43:19;;;;;;;5.97;4.77;;;21.30;34.70;;;;;;5048510;28;20195;-66
2021/08/28 04:45:45;;;;;;;5.57;5.07;;;21.30;34.70;;;;;;5046207;28;20188;-67
2021/08/28 04:48:10;;;;;;;5.47;5.07;;;21.30;34.70;;;;;;5047570;28;20268;-66
2021/08/28 04:50:36;;;;;;;6.00;5.60;;;21.30;34.60;;;;;;5050443;28;20199;-66
2021/08/28 04:53:01;;;;;;;6.70;6.20;;;21.30;34.60;;;;;;5051682;28;20175;-66
2021/08/28 04:55:28;;;;;;;6.13;5.70;;;21.30;34.60;;;;;;5050001;28;20192;-66
2021/08/28 04:57:54;;;;;;;9.03;6.77;;;21.30;34.70;;;;;;5049888;28;20180;-65
2021/08/28 05:00:19;;;;;;;7.40;6.80;;;21.30;34.80;;;;;;5049786;28;20431;-67
2021/08/28 05:02:45;;;;;;;8.80;8.00;;;21.30;35.10;;;;;;5049970;28;20206;-66
2021/08/28 05:05:11;;;;;;;8.00;7.23;;;21.30;35.20;;;;;;5049936;28;20200;-66
2021/08/28 05:07:36;;;;;;;7.57;7.13;;;21.30;35.20;;;;;;5035254;28;20290;-66
2021/08/28 05:10:03;;;;;;;6.10;5.60;;;21.20;35.30;;;;;;5046196;28;20200;-66
2021/08/28 05:12:28;;;;;;;6.00;5.60;;;21.30;35.60;;;;;;5049008;28;20259;-66
2021/08/28 05:14:54;;;;;;;6.50;6.13;;;21.30;35.50;;;;;;5048419;28;20536;-66
2021/08/28 05:17:19;;;;;;;6.80;6.40;;;21.30;35.50;;;;;;5044385;28;20187;-65
2021/08/28 05:19:45;;;;;;;6.13;5.73;;;21.30;35.70;;;;;;5037723;28;20600;-66
2021/08/28 05:22:11;;;;;;;7.47;6.90;;;21.30;35.90;;;;;;5046077;28;20179;-65
2021/08/28 05:24:37;;;;;;;7.23;6.83;;;21.30;35.90;;;;;;5038241;28;20236;-66
2021/08/28 05:27:03;;;;;;;8.40;7.80;;;21.30;36.10;;;;;;5051434;28;20256;-66
2021/08/28 05:29:29;;;;;;;6.07;5.53;;;21.30;36.50;;;;;;5039418;28;20431;-66
2021/08/28 05:31:55;;;;;;;7.17;6.57;;;21.30;36.30;;;;;;5043150;28;20484;-66
2021/08/28 05:34:20;;;;;;;8.10;6.40;;;21.30;36.20;;;;;;5039325;28;20252;-66
2021/08/28 05:36:46;;;;;;;7.47;5.87;;;21.30;36.10;;;;;;5044569;28;20251;-66
2021/08/28 05:39:11;;;;;;;6.57;6.00;;;21.30;36.00;;;;;;5050907;28;20204;-66
2021/08/28 05:41:37;;;;;;;6.33;5.80;;;21.30;35.90;;;;;;5046747;28;20176;-66
2021/08/28 05:44:03;;;;;;;6.00;5.50;;;21.30;35.80;;;;;;5051203;28;20286;-67
2021/08/28 05:46:29;;;;;;;6.60;6.00;;;21.30;35.70;;;;;;5050990;28;20172;-66
2021/08/28 05:48:54;;;;;;;5.57;5.13;;;21.30;35.70;;;;;;5044908;28;20477;-66
2021/08/28 05:51:20;;;;;;;7.30;6.70;;;21.30;35.70;;;;;;5050960;28;20230;-66
2021/08/28 05:53:46;;;;;;;6.77;6.03;;;21.30;35.60;;;;;;5051327;28;20191;-66
2021/08/28 05:56:11;;;;;;;6.10;5.70;;;21.30;35.60;;;;;;5053896;28;20301;-66
2021/08/28 05:58:37;;;;;;;6.37;5.67;;;21.30;35.60;;;;;;5039628;28;20542;-67
2021/08/28 06:01:03;;;;;;;6.33;5.70;;;21.30;35.80;;;;;;5048865;28;20718;-66
2021/08/28 06:03:29;;;;;;;6.47;5.97;;;21.30;35.70;;;;;;5054554;28;20179;-66
2021/08/28 06:05:54;;;;;;;7.73;6.27;;;21.30;35.80;;;;;;5054506;28;20556;-68
2021/08/28 06:08:20;;;;;;;6.03;5.53;;;21.30;35.70;;;;;;5054144;28;20196;-68
2021/08/28 06:10:45;;;;;;;7.40;6.60;;;21.30;35.70;;;;;;5050944;28;20242;-70
2021/08/28 06:13:11;;;;;;;9.47;5.60;;;21.30;35.80;;;;;;5051146;28;20580;-69
2021/08/28 06:15:36;;;;;;;8.10;5.33;;;21.30;35.90;;;;;;5054132;28;20242;-66
2021/08/28 06:18:02;;;;;;;12.30;6.27;;;21.30;35.90;;;;;;5052356;28;20186;-71
2021/08/28 06:20:28;;;;;;;9.57;6.37;;;21.30;35.70;;;;;;5051351;28;20326;-71
2021/08/28 06:22:53;;;;;;;8.23;5.53;;;21.30;35.80;;;;;;5052891;28;20180;-67
2021/08/28 06:25:19;;;;;;;10.13;6.53;;;21.30;35.80;;;;;;5053145;28;20176;-69
2021/08/28 06:27:44;;;;;;;11.47;6.63;;;21.30;35.90;;;;;;5053108;28;20277;-69
2021/08/28 06:30:10;;;;;;;10.30;7.27;;;21.30;35.90;;;;;;5052882;28;20196;-71
2021/08/28 06:32:36;;;;;;;9.10;6.70;;;21.30;35.90;;;;;;5053693;28;20191;-68
2021/08/28 06:35:01;;;;;;;11.87;7.37;;;21.30;35.90;;;;;;5054028;28;20812;-69
2021/08/28 06:37:27;;;;;;;8.33;7.30;;;21.30;35.90;;;;;;5053936;28;20187;-69
2021/08/28 06:39:52;;;;;;;10.90;6.77;;;21.30;35.90;;;;;;5053581;28;20268;-69
2021/08/28 06:42:18;;;;;;;19.17;7.80;;;21.30;35.90;;;;;;5053996;28;20646;-68
2021/08/28 06:44:44;;;;;;;12.40;7.97;;;21.30;35.90;;;;;;5052439;28;20226;-67
2021/08/28 06:47:10;;;;;;;8.87;7.17;;;21.30;35.90;;;;;;5053667;28;20188;-68
2021/08/28 06:49:35;;;;;;;9.57;7.70;;;21.30;36.00;;;;;;5053466;28;20431;-68
2021/08/28 06:52:01;;;;;;;9.30;7.60;;;21.30;35.90;;;;;;5053671;28;20168;-68
2021/08/28 06:54:27;;;;;;;8.13;7.33;;;21.30;35.90;;;;;;5053667;28;20178;-71
2021/08/28 06:56:52;;;;;;;7.37;6.30;;;21.30;35.90;;;;;;5053610;28;20267;-68
2021/08/28 06:59:18;;;;;;;8.63;7.30;;;21.30;36.00;;;;;;5053314;28;20228;-67
2021/08/28 07:01:43;;;;;;;8.63;7.10;;;21.30;36.00;;;;;;5053473;28;20207;-68
2021/08/28 07:04:10;;;;;;;12.97;8.10;;;21.30;36.00;;;;;;5053353;28;20259;-67
2021/08/28 07:06:35;;;;;;;8.93;7.50;;;21.30;36.00;;;;;;5053285;28;20176;-69
2021/08/28 07:09:02;;;;;;;12.33;7.57;;;21.30;35.90;;;;;;5052941;28;20457;-68
2021/08/28 07:11:28;;;;;;;10.60;6.80;;;21.30;35.90;;;;;;5053406;28;20164;-68
2021/08/28 07:13:53;;;;;;;11.10;7.40;;;21.30;35.90;;;;;;5053386;28;20756;-69
2021/08/28 07:16:19;;;;;;;7.73;6.57;;;21.30;35.90;;;;;;5053399;28;20172;-68
2021/08/28 07:18:45;;;;;;;7.97;7.07;;;21.30;36.00;;;;;;5052813;28;20224;-67
2021/08/28 07:21:10;;;;;;;10.40;6.47;;;21.30;35.90;;;;;;5053169;28;20183;-68
2021/08/28 07:23:36;;;;;;;7.07;6.37;;;21.30;35.90;;;;;;5053035;28;20274;-71
2021/08/28 07:26:02;;;;;;;7.47;6.63;;;21.30;35.90;;;;;;5053137;28;20175;-68
2021/08/28 07:28:27;;;;;;;7.60;6.80;;;21.30;35.90;;;;;;5052569;28;20869;-68
2021/08/28 07:30:53;;;;;;;9.50;7.17;;;21.30;35.80;;;;;;5052885;28;20168;-69
2021/08/28 07:33:18;;;;;;;9.40;7.83;;;21.30;35.90;;;;;;5052831;28;20175;-68
2021/08/28 07:35:44;;;;;;;7.43;6.63;;;21.30;35.90;;;;;;5052801;28;20226;-67
2021/08/28 07:38:09;;;;;;;9.00;7.10;;;21.30;35.80;;;;;;5052592;28;20176;-68
2021/08/28 07:40:35;;;;;;;8.17;6.40;;;21.30;35.90;;;;;;5052788;28;20200;-68
2021/08/28 07:43:00;;;;;;;13.03;6.63;;;21.30;35.90;;;;;;5052557;28;20255;-71
2021/08/28 07:45:26;;;;;;;7.47;6.70;;;21.30;35.80;;;;;;5052689;28;20172;-69
2021/08/28 07:47:53;;;;;;;8.87;6.60;;;21.30;36.50;;;;;;5052210;28;20341;-68
2021/08/28 07:50:19;;;;;;;6.50;5.90;;;21.30;35.80;;;;;;5052413;28;20426;-67
2021/08/28 07:52:44;;;;;;;8.80;7.27;;;21.30;35.80;;;;;;5052351;28;20433;-68
2021/08/28 07:55:12;;;;;;;7.20;6.50;;;21.30;35.90;;;;;;5052462;28;20411;-68
2021/08/28 07:57:39;;;;;;;7.07;6.00;;;21.30;35.90;;;;;;5052298;28;20307;-68
2021/08/28 08:00:08;;;;;;;7.50;6.90;;;21.30;35.90;;;;;;5052540;28;20932;-67
2021/08/28 08:02:34;;;;;;;9.30;6.40;;;21.30;35.90;;;;;;5052100;28;20423;-68
2021/08/28 08:05:01;;;;;;;7.57;6.63;;;21.30;35.90;;;;;;5052546;28;20418;-68
2021/08/28 08:07:26;;;;;;;7.07;6.40;;;21.30;35.80;;;;;;5052169;28;20826;-68
2021/08/28 08:09:52;;;;;;;6.73;6.23;;;21.30;35.80;;;;;;5051949;28;20431;-68
2021/08/28 08:12:17;;;;;;;7.63;6.53;;;21.30;35.90;;;;;;5052186;28;20171;-70
2021/08/28 08:14:43;;;;;;;7.00;6.27;;;21.30;35.80;;;;;;5052063;28;20196;-68
2021/08/28 08:17:08;;;;;;;7.00;6.30;;;21.30;35.90;;;;;;5051954;28;20199;-68
2021/08/28 08:19:34;;;;;;;7.23;5.97;;;21.30;35.90;;;;;;5051424;28;20192;-68
2021/08/28 08:22:00;;;;;;;6.93;6.27;;;21.30;35.90;;;;;;5050794;28;20183;-69
2021/08/28 08:24:25;;;;;;;6.60;6.00;;;21.30;35.90;;;;;;5052081;28;20251;-68
2021/08/28 08:26:51;;;;;;;6.70;6.10;;;21.30;35.90;;;;;;5052054;28;20220;-68
2021/08/28 08:29:17;;;;;;;6.50;5.83;;;21.30;35.90;;;;;;5051581;28;20697;-68
2021/08/28 08:31:42;;;;;;;7.60;5.80;;;21.30;35.90;;;;;;5051896;28;20414;-68
2021/08/28 08:34:08;;;;;;;6.43;5.90;;;21.30;35.90;;;;;;5051861;28;20175;-68
2021/08/28 08:36:33;;;;;;;6.77;6.07;;;21.30;35.80;;;;;;5051781;28;20225;-68
2021/08/28 08:38:59;;;;;;;6.50;5.97;;;21.30;35.80;;;;;;5051586;28;20555;-68
2021/08/28 08:41:25;;;;;;;6.07;5.57;;;21.30;35.80;;;;;;5051917;28;20184;-70
2021/08/28 08:43:53;;;;;;;6.10;5.60;;;21.30;35.80;;;;;;5051763;28;20253;-68
2021/08/28 08:46:21;;;;;;;6.93;6.43;;;21.30;35.80;;;;;;5051725;28;20417;-68
2021/08/28 08:48:48;;;;;;;7.27;5.50;;;21.30;35.80;;;;;;5051225;28;20547;-68
2021/08/28 08:51:14;;;;;;;5.97;5.50;;;21.30;35.80;;;;;;5050444;28;20970;-68
2021/08/28 08:53:41;;;;;;;6.10;5.50;;;21.30;35.80;;;;;;5051667;28;20394;-68
2021/08/28 08:56:07;;;;;;;6.50;5.90;;;21.30;35.80;;;;;;5051803;28;20174;-68
2021/08/28 08:58:33;;;;;;;6.17;5.60;;;21.30;35.80;;;;;;5051360;28;20494;-69
2021/08/28 09:01:01;;;;;;;6.40;5.80;;;21.30;35.90;;;;;;5051657;28;20857;-69
2021/08/28 09:03:26;;;;;;;6.37;5.87;;;21.30;35.80;;;;;;5051596;28;20414;-67
2021/08/28 09:05:52;;;;;;;6.17;5.67;;;21.30;36.50;;;;;;5051540;28;20854;-67
2021/08/28 09:08:17;;;;;;;5.80;5.37;;;21.30;35.80;;;;;;5051291;28;20571;-68
2021/08/28 09:10:43;;;;;;;6.27;5.47;;;21.30;35.70;;;;;;5051651;28;20633;-67
2021/08/28 09:13:15;;;;;;;5.47;5.07;;;21.30;35.80;;;;;;5051471;28;20179;-68
2021/08/28 09:15:43;;;;;;;7.07;6.37;;;21.30;35.80;;;;;;5051498;28;20176;-69
2021/08/28 09:18:09;;;;;;;5.13;4.73;;;21.30;35.90;;;;;;5051218;28;20421;-69
2021/08/28 09:20:35;;;;;;;5.87;5.37;;;21.30;35.90;;;;;;5051361;28;20935;-68
2021/08/28 09:23:09;;;;;;;5.20;4.80;;;21.30;35.80;;;;;;5051152;28;20176;-69
2021/08/28 09:25:37;;;;;;;6.70;4.87;;;21.30;35.90;;;;;;5051420;28;20987;-68
2021/08/28 09:28:02;;;;;;;5.47;4.97;;;21.30;35.80;;;;;;5039329;28;20486;-69
2021/08/28 09:30:34;;;;;;;5.40;4.90;;;21.30;35.90;;;;;;5043921;28;20607;-69
2021/08/28 09:33:01;;;;;;;6.20;5.70;;;21.30;35.80;;;;;;5055141;28;20647;-68
2021/08/28 09:35:32;;;;;;;5.30;4.80;;;21.40;36.70;;;;;;5055160;28;20399;-69
2021/08/28 09:38:04;;;;;;;5.83;5.30;;;21.30;35.90;;;;;;5055327;28;20932;-66
2021/08/28 09:40:33;;;;;;;7.60;5.10;;;21.30;35.90;;;;;;5048561;28;20473;-70
2021/08/28 09:43:02;;;;;;;5.63;5.13;;;21.30;35.90;;;;;;5035173;28;20411;-67
2021/08/28 09:45:28;;;;;;;5.87;5.43;;;21.30;35.90;;;;;;5037223;28;20422;-67
2021/08/28 09:47:56;;;;;;;6.10;5.23;;;21.30;35.90;;;;;;5034985;28;20503;-67
2021/08/28 09:50:30;;;;;;;5.60;5.10;;;21.30;36.00;;;;;;5034632;28;20439;-67
2021/08/28 09:53:00;;;;;;;5.10;4.60;;;21.30;36.00;;;;;;5034829;28;20437;-67
2021/08/28 09:55:29;;;;;;;5.37;4.97;;;21.30;36.00;;;;;;5039839;28;20466;-69
2021/08/28 09:57:55;;;;;;;5.20;4.70;;;21.30;36.10;;;;;;5048543;28;20776;-69
2021/08/28 10:00:21;;;;;;;4.60;4.30;;;21.30;36.00;;;;;;5041383;28;20532;-70
2021/08/28 10:03:04;;;;;;;4.97;4.37;;;21.30;36.10;;;;;;5040196;28;20208;-67
2021/08/28 10:05:38;;;;;;;5.40;4.83;;;21.30;36.10;;;;;;5054719;28;20176;-67
2021/08/28 10:08:06;;;;;;;5.70;4.83;;;21.30;36.10;;;;;;5051401;28;20466;-66
2021/08/28 10:10:33;;;;;;;5.13;4.73;;;21.30;36.20;;;;;;5040300;28;20458;-70
2021/08/28 10:13:03;;;;;;;6.63;4.53;;;21.30;36.10;;;;;;5034331;28;20418;-68
2021/08/28 10:15:30;;;;;;;5.40;4.80;;;21.30;36.00;;;;;;5034423;28;20408;-67
2021/08/28 10:17:57;;;;;;;5.27;4.73;;;21.30;36.00;;;;;;5034002;28;20403;-70
2021/08/28 10:20:25;;;;;;;4.73;4.33;;;21.30;36.10;;;;;;5032655;28;20446;-68
2021/08/28 10:22:54;;;;;;;5.03;4.57;;;21.30;36.10;;;;;;5034389;28;20408;-68
2021/08/28 10:25:25;;;;;;;6.43;4.70;;;21.30;36.10;;;;;;5034376;28;20407;-68
2021/08/28 10:27:52;;;;;;;4.70;4.40;;;21.30;36.20;;;;;;5034191;28;20462;-69
2021/08/28 10:30:20;;;;;;;5.10;4.73;;;21.30;36.20;;;;;;5034175;28;20430;-71
2021/08/28 10:32:46;;;;;;;5.13;4.73;;;21.30;36.20;;;;;;5034515;28;20918;-67
2021/08/28 10:35:13;;;;;;;5.10;4.57;;;21.30;36.30;;;;;;5052856;28;20414;-69
2021/08/28 10:37:40;;;;;;;4.83;4.53;;;21.30;36.20;;;;;;5052780;28;20406;-68
2021/08/28 10:40:10;;;;;;;4.27;3.97;;;21.30;36.20;;;;;;5051896;28;20964;-68
2021/08/28 10:42:37;;;;;;;4.73;4.33;;;21.30;36.30;;;;;;5051866;28;20476;-68
2021/08/28 10:45:04;;;;;;;4.70;4.40;;;21.30;36.30;;;;;;5050711;28;20414;-67
2021/08/28 10:47:34;;;;;;;5.10;4.70;;;21.30;36.30;;;;;;5044664;28;20533;-67
2021/08/28 10:50:12;;;;;;;4.60;4.20;;;21.30;36.30;;;;;;5040783;28;20437;-67
2021/08/28 10:52:40;;;;;;;4.67;4.13;;;21.30;36.30;;;;;;5041086;28;20860;-67
2021/08/28 10:55:10;;;;;;;4.33;4.03;;;21.30;36.10;;;;;;5048836;28;20934;-67
2021/08/28 10:57:37;;;;;;;4.30;4.00;;;21.40;36.30;;;;;;5049822;28;20415;-67
2021/08/28 11:00:14;;;;;;;4.13;3.83;;;21.30;36.00;;;;;;5050117;28;20587;-68
2021/08/28 11:02:55;;;;;;;3.90;3.60;;;21.40;36.00;;;;;;5030651;28;20485;-67
2021/08/28 11:05:27;;;;;;;4.83;4.50;;;21.40;36.00;;;;;;5032081;28;20419;-67
2021/08/28 11:07:54;;;;;;;6.80;4.73;;;21.40;36.00;;;;;;5031959;28;20446;-67
2021/08/28 11:10:27;;;;;;;4.50;4.10;;;21.40;36.00;;;;;;5031680;28;20431;-67
2021/08/28 11:12:58;;;;;;;4.60;4.03;;;21.40;36.00;;;;;;5031907;28;20399;-67
2021/08/28 11:15:30;;;;;;;4.20;3.50;;;21.40;36.10;;;;;;5030488;28;20422;-67
2021/08/28 11:17:56;;;;;;;4.37;3.97;;;21.40;36.10;;;;;;5036772;28;20414;-67
2021/08/28 11:20:35;;;;;;;4.50;4.10;;;21.40;36.00;;;;;;5045231;28;20962;-67
2021/08/28 11:23:02;;;;;;;4.20;3.90;;;21.50;36.00;;;;;;5040488;28;20569;-67
2021/08/28 11:25:31;;;;;;;4.90;4.47;;;21.50;35.90;;;;;;5039224;28;20502;-67
2021/08/28 11:27:59;;;;;;;4.10;3.90;;;21.50;35.70;;;;;;5033327;28;20466;-69
2021/08/28 11:30:46;;;;;;;4.10;3.83;;;21.50;35.70;;;;;;5031488;28;20545;-69
2021/08/28 11:33:30;;;;;;;4.30;4.00;;;21.50;35.60;;;;;;5030629;28;20789;-69
2021/08/28 11:35:58;;;;;;;4.10;3.70;;;21.50;35.80;;;;;;5034617;28;20407;-69
2021/08/28 11:38:37;;;;;;;4.07;3.80;;;21.50;35.80;;;;;;5048874;28;20412;-69
2021/08/28 11:41:10;;;;;;;4.43;4.13;;;21.50;35.80;;;;;;5049294;28;20452;-69
2021/08/28 11:43:42;;;;;;;3.80;3.50;;;21.50;35.80;;;;;;5048661;28;20469;-70
2021/08/28 11:46:11;;;;;;;3.93;3.67;;;21.50;35.80;;;;;;5049113;28;20996;-69
2021/08/28 11:48:43;;;;;;;4.00;3.70;;;21.50;35.70;;;;;;5040657;28;20467;-69
2021/08/28 11:51:25;;;;;;;3.80;3.50;;;21.60;35.70;;;;;;5047151;28;20407;-69
2021/08/28 11:53:53;;;;;;;3.70;3.40;;;21.50;35.80;;;;;;5032943;28;20439;-69
2021/08/28 11:56:20;;;;;;;4.20;3.80;;;21.50;35.80;;;;;;5030780;28;20983;-69
2021/08/28 11:59:03;;;;;;;4.23;3.83;;;21.50;35.80;;;;;;5030739;28;21015;-69
2021/08/28 12:01:43;;;;;;;3.93;3.57;;;21.50;35.80;;;;;;5029935;28;20948;-69
2021/08/28 12:04:16;;;;;;;4.10;3.90;;;21.50;35.80;;;;;;5046847;28;20411;-69
2021/08/28 12:06:43;;;;;;;3.63;3.43;;;21.50;35.90;;;;;;5048631;28;20544;-70
2021/08/28 12:09:11;;;;;;;4.87;4.57;;;21.50;35.60;;;;;;5033548;28;20466;-69
2021/08/28 12:11:43;;;;;;;4.60;4.20;;;21.50;35.60;;;;;;5029281;28;20415;-69
2021/08/28 12:14:10;;;;;;;3.60;3.40;;;21.50;35.60;;;;;;5048283;28;20410;-69
2021/08/28 12:16:39;;;;;;;3.80;3.50;;;21.50;35.70;;;;;;5032225;28;20497;-70
2021/08/28 12:19:14;;;;;;;3.93;3.53;;;21.50;35.70;;;;;;5045153;28;20442;-70
2021/08/28 12:21:42;;;;;;;3.73;3.53;;;21.50;35.70;;;;;;5044133;28;20487;-70
2021/08/28 12:24:29;;;;;;;3.83;3.20;;;21.50;35.70;;;;;;5048456;28;20846;-70
2021/08/28 12:27:06;;;;;;;3.47;3.20;;;21.50;35.60;;;;;;5028701;28;20868;-69
2021/08/28 12:29:36;;;;;;;3.40;3.10;;;21.50;35.70;;;;;;5036589;28;20474;-69
2021/08/28 12:32:09;;;;;;;3.43;3.23;;;21.50;35.80;;;;;;5028636;28;20418;-70
2021/08/28 12:34:37;;;;;;;3.87;3.60;;;21.50;35.70;;;;;;5047014;28;20405;-70
2021/08/28 12:37:15;;;;;;;3.40;3.20;;;21.50;35.70;;;;;;5048236;28;21150;-69
2021/08/28 12:39:43;;;;;;;3.33;3.13;;;21.50;35.70;;;;;;5061094;28;20480;-69
2021/08/28 12:42:17;;;;;;;3.37;3.17;;;21.50;35.70;;;;;;5070371;28;20401;-69
2021/08/28 12:44:48;;;;;;;4.10;3.30;;;21.50;35.70;;;;;;5071775;28;20463;-70
2021/08/28 12:47:17;;;;;;;5.93;3.20;;;21.50;35.70;;;;;;5071364;28;20524;-70
2021/08/28 12:49:43;;;;;;;3.63;3.33;;;21.50;35.60;;;;;;5070756;28;20443;-70
2021/08/28 12:52:11;;;;;;;3.80;3.60;;;21.50;35.60;;;;;;5071758;28;20429;-70
2021/08/28 12:54:56;;;;;;;3.43;3.13;;;21.50;35.70;;;;;;5071740;28;20409;-70